^^
Station Historical Data
Daily Summary for January 16, 2020 Units:  English    Metric   Both
« Previous Day
Next Day »
Daily Weekly Monthly Yearly Custom
  High: Low: Average:
Temperature: 4.8 °F -19.6 °F -9.8 °F
Dew Point: 0 °F -25.2 °F -16.1 °F
Humidity: 81% 63% 73%
Wind Speed: 27mph 0mph 11.8mph
Wind Gust: 31mph - -
Wind- - ESE
Pressure: 30.84 in 30.25 in -
Precipitation: 0 in    
Historical Graphs
 
 
Tabular Data for January 16, 2020
Time Temperature Dew Point Pressure Wind Wind Speed Wind Gust Humidity Rainfall Rate (Hourly) solar Conditions
00:00 -16.4 °F -21.2 °F 30.81 in West 1 mph 2 mph 78% 0 in 0.00 W/m2
00:05 -16.4 °F -21.2 °F 30.81 in West 1 mph 2 mph 78% 0 in 0.00 W/m2
00:10 -16.4 °F -21.2 °F 30.81 in West 1 mph 2 mph 78% 0 in 0.00 W/m2
00:15 -16.4 °F -21.2 °F 30.81 in West 1 mph 2 mph 78% 0 in 0.00 W/m2
00:20 -16.3 °F -21.1 °F 30.81 in WNW 2 mph 3 mph 78% 0 in 0.00 W/m2
00:25 -16 °F -20.6 °F 30.81 in WNW 2 mph 3 mph 79% 0 in 0.00 W/m2
00:30 -15.8 °F -20.6 °F 30.81 in WNW 3 mph 3 mph 78% 0 in 0.00 W/m2
00:35 -15.7 °F -20.5 °F 30.81 in WNW 2 mph 3 mph 78% 0 in 0.00 W/m2
00:40 -15.7 °F -20.5 °F 30.81 in WNW 2 mph 3 mph 78% 0 in 0.00 W/m2
00:45 -15.7 °F -20.5 °F 30.81 in NW 3 mph 3 mph 78% 0 in 0.00 W/m2
00:50 -15.7 °F -20.8 °F 30.81 in NW 3 mph 3 mph 77% 0 in 0.00 W/m2
00:55 -15.8 °F -20.9 °F 30.81 in NW 3 mph 4 mph 77% 0 in 0.00 W/m2
01:00 -15.8 °F -20.9 °F 30.81 in NW 3 mph 4 mph 77% 0 in 0.00 W/m2
01:05 -15.8 °F -20.9 °F 30.81 in NNW 2 mph 4 mph 77% 0 in 0.00 W/m2
01:10 -15.7 °F -20.8 °F 30.81 in NNW 2 mph 4 mph 77% 0 in 0.00 W/m2
01:15 -15.6 °F -20.7 °F 30.81 in NNW 2 mph 4 mph 77% 0 in 0.00 W/m2
01:20 -15.6 °F -20.7 °F 30.81 in NNW 4 mph 4 mph 77% 0 in 0.00 W/m2
01:25 -15.6 °F -20.7 °F 30.82 in NNW 3 mph 4 mph 77% 0 in 0.00 W/m2
01:30 -15.7 °F -20.8 °F 30.81 in NNW 4 mph 5 mph 77% 0 in 0.00 W/m2
01:35 -15.8 °F -20.9 °F 30.80 in North 4 mph 6 mph 77% 0 in 0.00 W/m2
01:40 -15.8 °F -20.6 °F 30.80 in NNE 3 mph 6 mph 78% 0 in 0.00 W/m2
01:45 -15.9 °F -21 °F 30.79 in NNE 5 mph 7 mph 77% 0 in 0.00 W/m2
01:50 -16 °F -21.1 °F 30.79 in NNE 5 mph 8 mph 77% 0 in 0.00 W/m2
01:55 -15.9 °F -21 °F 30.79 in NNE 6 mph 8 mph 77% 0 in 0.00 W/m2
02:00 -16 °F -21.3 °F 30.79 in NE 5 mph 8 mph 76% 0 in 0.00 W/m2
02:05 -16.6 °F -22.2 °F 30.80 in ENE 3 mph 6 mph 75% 0 in 0.00 W/m2
02:10 -17.1 °F -22.7 °F 30.80 in Calm   6 mph 75% 0 in 0.00 W/m2
02:15 -17.5 °F -23 °F 30.80 in ENE 3 mph 6 mph 75% 0 in 0.00 W/m2
02:20 -17.8 °F -23.1 °F 30.80 in ENE 2 mph 4 mph 76% 0 in 0.00 W/m2
02:25 -17.9 °F -23.2 °F 30.80 in ENE 2 mph 4 mph 76% 0 in 0.00 W/m2
02:30 -18 °F -23 °F 30.81 in NE 3 mph 5 mph 77% 0 in 0.00 W/m2
02:35 -18 °F -23 °F 30.81 in NE 1 mph 6 mph 77% 0 in 0.00 W/m2
02:40 -18.1 °F -23.4 °F 30.81 in SSW 2 mph 6 mph 76% 0 in 0.00 W/m2
02:45 -18.7 °F -24 °F 30.81 in SSW 1 mph 4 mph 76% 0 in 0.00 W/m2
02:50 -19.2 °F -24.7 °F 30.82 in SSW 2 mph 3 mph 75% 0 in 0.00 W/m2
02:55 -19.5 °F -24.7 °F 30.82 in SSW 1 mph 3 mph 76% 0 in 0.00 W/m2
03:00 -19.5 °F -24.5 °F 30.82 in SSW 1 mph 3 mph 77% 0 in 0.00 W/m2
03:05 -19.5 °F -24.2 °F 30.82 in South 3 mph 3 mph 78% 0 in 0.00 W/m2
03:10 -19.1 °F -23.6 °F 30.82 in SE 3 mph 4 mph 79% 0 in 0.00 W/m2
03:15 -18.6 °F -23.1 °F 30.83 in SE 3 mph 4 mph 79% 0 in 0.00 W/m2
03:20 -18.3 °F -22.8 °F 30.82 in SE 2 mph 4 mph 79% 0 in 0.00 W/m2
03:25 -18.1 °F -22.6 °F 30.82 in SE 1 mph 4 mph 79% 0 in 0.00 W/m2
03:30 -17.2 °F -21.5 °F 30.82 in Calm   4 mph 80% 0 in 0.00 W/m2
03:35 -16.7 °F -21.3 °F 30.82 in SE 1 mph 3 mph 79% 0 in 0.00 W/m2
03:40 -16.5 °F -21.3 °F 30.82 in SE 1 mph 3 mph 78% 0 in 0.00 W/m2
03:45 -16.2 °F -20.8 °F 30.82 in Calm   2 mph 79% 0 in 0.00 W/m2
03:50 -15.9 °F -20.7 °F 30.83 in Calm   2 mph 78% 0 in 0.00 W/m2
03:55 -15.7 °F -20.5 °F 30.83 in Calm   2 mph 78% 0 in 0.00 W/m2
04:00 -15.8 °F -20.9 °F 30.83 in Calm     77% 0 in 0.00 W/m2
04:05 -16.4 °F -22 °F 30.84 in Calm     75% 0 in 0.00 W/m2
04:10 -17.9 °F -23.9 °F 30.84 in SE 4 mph 4 mph 73% 0 in 0.00 W/m2
04:15 -19.4 °F -25.1 °F 30.84 in SE 3 mph 5 mph 74% 0 in 0.00 W/m2
04:20 -19.6 °F -24.8 °F 30.84 in SE 3 mph 5 mph 76% 0 in 0.00 W/m2
04:25 -19.5 °F -24.2 °F 30.84 in SE 3 mph 5 mph 78% 0 in 0.00 W/m2
04:30 -19.2 °F -24 °F 30.84 in SE 3 mph 5 mph 78% 0 in 0.00 W/m2
04:35 -19 °F -23.8 °F 30.84 in SE 3 mph 4 mph 78% 0 in 0.00 W/m2
04:40 -18.7 °F -23.2 °F 30.84 in ESE 4 mph 4 mph 79% 0 in 0.00 W/m2
04:45 -18.7 °F -23.5 °F 30.84 in ESE 4 mph 4 mph 78% 0 in 0.00 W/m2
04:50 -19 °F -24 °F 30.83 in East 6 mph 6 mph 77% 0 in 0.00 W/m2
04:55 -19.2 °F -24 °F 30.83 in East 6 mph 7 mph 78% 0 in 0.00 W/m2
05:00 -19.2 °F -24 °F 30.83 in East 4 mph 7 mph 78% 0 in 0.00 W/m2
05:05 -19.3 °F -24 °F 30.83 in East 7 mph 8 mph 78% 0 in 0.00 W/m2
05:10 -19.4 °F -24.1 °F 30.83 in East 8 mph 8 mph 78% 0 in 0.00 W/m2
05:15 -19.1 °F -23.6 °F 30.83 in East 5 mph 8 mph 79% 0 in 0.00 W/m2
05:20 -19 °F -23.5 °F 30.82 in East 7 mph 8 mph 79% 0 in 0.00 W/m2
05:25 -18.9 °F -23.4 °F 30.82 in East 5 mph 8 mph 79% 0 in 0.00 W/m2
05:30 -18.7 °F -23.2 °F 30.81 in ENE 9 mph 9 mph 79% 0 in 0.00 W/m2
05:35 -18.8 °F -23.6 °F 30.80 in ENE 11 mph 11 mph 78% 0 in 0.00 W/m2
05:40 -18.7 °F -23.5 °F 30.80 in ENE 8 mph 11 mph 78% 0 in 0.00 W/m2
05:45 -18.4 °F -23.2 °F 30.80 in ENE 9 mph 11 mph 78% 0 in 0.00 W/m2
05:50 -17.9 °F -22.4 °F 30.80 in East 9 mph 11 mph 79% 0 in 0.00 W/m2
05:55 -17.9 °F -22.9 °F 30.80 in ESE 7 mph 11 mph 77% 0 in 0.00 W/m2
06:00 -18.2 °F -23.2 °F 30.81 in ESE 7 mph 11 mph 77% 0 in 0.00 W/m2
06:05 -18.5 °F -23.8 °F 30.81 in SE 5 mph 11 mph 76% 0 in 0.00 W/m2
06:10 -19.1 °F -24.3 °F 30.81 in ESE 7 mph 11 mph 76% 0 in 0.00 W/m2
06:15 -19.1 °F -24.1 °F 30.81 in ESE 6 mph 9 mph 77% 0 in 0.00 W/m2
06:20 -19.2 °F -24.2 °F 30.81 in SE 4 mph 9 mph 77% 0 in 0.00 W/m2
06:25 -19.3 °F -24.3 °F 30.81 in ESE 7 mph 8 mph 77% 0 in 0.00 W/m2
06:30 -19.1 °F -23.9 °F 30.81 in ESE 8 mph 10 mph 78% 0 in 0.00 W/m2
06:35 -19.1 °F -24.1 °F 30.82 in SE 7 mph 10 mph 77% 0 in 0.00 W/m2
06:40 -19.3 °F -24.3 °F 30.82 in ESE 9 mph 11 mph 77% 0 in 0.00 W/m2
06:45 -19.4 °F -24.4 °F 30.82 in ESE 11 mph 12 mph 77% 0 in 0.00 W/m2
06:50 -19.3 °F -24.3 °F 30.82 in East 9 mph 12 mph 77% 0 in 0.00 W/m2
06:55 -19.3 °F -24.3 °F 30.81 in ESE 12 mph 12 mph 77% 0 in 0.00 W/m2
07:00 -19.3 °F -24.5 °F 30.81 in ESE 12 mph 12 mph 76% 0 in 0.00 W/m2
07:05 -19.4 °F -24.6 °F 30.82 in ESE 12 mph 12 mph 76% 0 in 0.00 W/m2
07:10 -19.6 °F -24.8 °F 30.82 in ESE 12 mph 12 mph 76% 0 in 0.00 W/m2
07:15 -19.6 °F -24.8 °F 30.82 in ESE 12 mph 12 mph 76% 0 in 0.00 W/m2
07:20 -19.5 °F -25 °F 30.81 in ESE 12 mph 12 mph 75% 0 in 0.00 W/m2
07:25 -19.6 °F -25.1 °F 30.81 in ESE 12 mph 12 mph 75% 0 in 0.00 W/m2
07:30 -19.5 °F -25.2 °F 30.81 in ESE 12 mph 12 mph 74% 0 in 0.00 W/m2
07:35 -19.1 °F -24.8 °F 30.80 in ESE 12 mph 12 mph 74% 0 in 0.00 W/m2
07:40 -18.7 °F -24.7 °F 30.80 in ESE 12 mph 12 mph 73% 0 in 0.00 W/m2
07:45 -18.4 °F -24.4 °F 30.81 in ESE 12 mph 12 mph 73% 0 in 0.00 W/m2
07:50 -18.3 °F -24.3 °F 30.81 in ESE 12 mph 12 mph 73% 0 in 0.00 W/m2
07:55 -18.2 °F -24.5 °F 30.80 in ESE 12 mph 12 mph 72% 0 in 0.00 W/m2
08:00 -18.2 °F -24.5 °F 30.80 in ESE 12 mph 12 mph 72% 0 in 0.00 W/m2
08:05 -18.2 °F -24.5 °F 30.79 in ESE 12 mph 12 mph 72% 0 in 0.00 W/m2
08:10 -18.5 °F -24.8 °F 30.79 in ESE 12 mph 12 mph 72% 0 in 0.00 W/m2
08:15 -18.7 °F -25 °F 30.79 in ESE 12 mph 12 mph 72% 0 in 0.00 W/m2
08:20 -18.5 °F -24.8 °F 30.79 in ESE 12 mph 12 mph 72% 0 in 5.00 W/m2
08:25 -18.4 °F -24.7 °F 30.79 in ESE 12 mph 12 mph 72% 0 in 7.00 W/m2
08:30 -18.2 °F -24.5 °F 30.79 in ESE 12 mph 12 mph 72% 0 in 9.00 W/m2
08:35 -18.2 °F -24.8 °F 30.79 in ESE 12 mph 12 mph 71% 0 in 11.00 W/m2
08:40 -18.4 °F -24.9 °F 30.80 in ESE 12 mph 12 mph 71% 0 in 14.00 W/m2
08:45 -18.4 °F -24.9 °F 30.80 in ESE 12 mph 12 mph 71% 0 in 16.00 W/m2
08:50 -18.5 °F -24.8 °F 30.80 in ESE 12 mph 12 mph 72% 0 in 21.00 W/m2
08:55 -18.2 °F -24.5 °F 30.80 in ESE 12 mph 12 mph 72% 0 in 25.00 W/m2
09:00 -17.9 °F -24.2 °F 30.80 in ESE 12 mph 12 mph 72% 0 in 26.00 W/m2
09:05 -17.6 °F -24.2 °F 30.80 in ESE 12 mph 12 mph 71% 0 in 32.00 W/m2
09:10 -17.4 °F -24 °F 30.79 in ESE 12 mph 12 mph 71% 0 in 37.00 W/m2
09:15 -17.3 °F -24.2 °F 30.79 in ESE 12 mph 12 mph 70% 0 in 44.00 W/m2
09:20 -17.1 °F -24 °F 30.79 in ESE 12 mph 12 mph 70% 0 in 54.00 W/m2
09:25 -17 °F -23.9 °F 30.79 in ESE 12 mph 12 mph 70% 0 in 69.00 W/m2
09:30 -16.9 °F -23.8 °F 30.78 in ESE 11 mph 16 mph 70% 0 in 76.00 W/m2
09:35 -16.9 °F -24 °F 30.78 in ESE 14 mph 16 mph 69% 0 in 84.00 W/m2
09:40 -16.9 °F -24 °F 30.78 in SE 12 mph 16 mph 69% 0 in 97.00 W/m2
09:45 -16.7 °F -23.8 °F 30.78 in ESE 7 mph 16 mph 69% 0 in 113.00 W/m2
09:50 -16.2 °F -23.4 °F 30.78 in ESE 10 mph 16 mph 69% 0 in 127.00 W/m2
09:55 -15.8 °F -23.3 °F 30.78 in ESE 12 mph 14 mph 68% 0 in 134.00 W/m2
10:00 -15.4 °F -22.9 °F 30.77 in ESE 10 mph 14 mph 68% 0 in 160.00 W/m2
10:05 -14.9 °F -22.7 °F 30.76 in ESE 12 mph 14 mph 67% 0 in 174.00 W/m2
10:10 -14.4 °F -22.5 °F 30.76 in East 17 mph 18 mph 66% 0 in 178.00 W/m2
10:15 -13.8 °F -21.9 °F 30.76 in East 17 mph 18 mph 66% 0 in 195.00 W/m2
10:20 -13.6 °F -22 °F 30.77 in ESE 11 mph 21 mph 65% 0 in 202.00 W/m2
10:25 -13.6 °F -22 °F 30.77 in ESE 16 mph 21 mph 65% 0 in 209.00 W/m2
10:30 -13.6 °F -22 °F 30.77 in East 19 mph 21 mph 65% 0 in 213.00 W/m2
10:35 -13.3 °F -21.7 °F 30.77 in East 13 mph 21 mph 65% 0 in 236.00 W/m2
10:40 -13 °F -21.4 °F 30.77 in ESE 11 mph 19 mph 65% 0 in 227.00 W/m2
10:45 -12.4 °F -20.9 °F 30.77 in East 17 mph 19 mph 65% 0 in 248.00 W/m2
10:50 -12 °F -20.5 °F 30.77 in ESE 13 mph 19 mph 65% 0 in 253.00 W/m2
10:55 -11.9 °F -20.7 °F 30.77 in ESE 14 mph 19 mph 64% 0 in 265.00 W/m2
11:00 -11.7 °F -20.5 °F 30.77 in ESE 15 mph 19 mph 64% 0 in 288.00 W/m2
11:05 -11.4 °F -20.2 °F 30.77 in ESE 13 mph 19 mph 64% 0 in 287.00 W/m2
11:10 -11 °F -19.8 °F 30.77 in ESE 11 mph 19 mph 64% 0 in 308.00 W/m2
11:15 -10.6 °F -19.7 °F 30.76 in ESE 13 mph 19 mph 63% 0 in 315.00 W/m2
11:20 -10.4 °F -19.2 °F 30.76 in ESE 14 mph 20 mph 64% 0 in 302.00 W/m2
11:25 -10 °F -18.9 °F 30.77 in East 15 mph 20 mph 64% 0 in 306.00 W/m2
11:30 -10 °F -19.2 °F 30.77 in ESE 13 mph 20 mph 63% 0 in 308.00 W/m2
11:35 -9.7 °F -18.6 °F 30.76 in ESE 15 mph 20 mph 64% 0 in 329.00 W/m2
11:40 -9.2 °F -18.4 °F 30.76 in East 14 mph 23 mph 63% 0 in 325.00 W/m2
11:45 -8.8 °F -18 °F 30.76 in SE 16 mph 23 mph 63% 0 in 366.00 W/m2
11:50 -8.5 °F -17.7 °F 30.75 in ESE 15 mph 23 mph 63% 0 in 350.00 W/m2
11:55 -8.1 °F -17.3 °F 30.74 in East 14 mph 25 mph 63% 0 in 357.00 W/m2
12:00 -8.1 °F -17.3 °F 30.74 in East 10 mph 25 mph 63% 0 in 353.00 W/m2
12:05 -7.9 °F -17.2 °F 30.73 in East 14 mph 19 mph 63% 0 in 353.00 W/m2
12:10 -7.7 °F -17 °F 30.72 in ESE 12 mph 20 mph 63% 0 in 330.00 W/m2
12:15 -7.6 °F -16.9 °F 30.71 in East 20 mph 25 mph 63% 0 in 362.00 W/m2
12:20 -7.3 °F -16.6 °F 30.71 in East 15 mph 25 mph 63% 0 in 362.00 W/m2
12:25 -7 °F -16.3 °F 30.70 in ESE 19 mph 24 mph 63% 0 in 360.00 W/m2
12:30 -6.9 °F -16.2 °F 30.70 in ESE 12 mph 23 mph 63% 0 in 383.00 W/m2
12:35 -6.7 °F -15.7 °F 30.69 in ESE 19 mph 23 mph 64% 0 in 378.00 W/m2
12:40 -6.5 °F -15.5 °F 30.68 in East 15 mph 21 mph 64% 0 in 364.00 W/m2
12:45 -6.3 °F -15.3 °F 30.67 in East 20 mph 26 mph 64% 0 in 374.00 W/m2
12:50 -6.1 °F -14.8 °F 30.67 in East 12 mph 27 mph 65% 0 in 330.00 W/m2
12:55 -6.2 °F -14.9 °F 30.67 in East 15 mph 27 mph 65% 0 in 315.00 W/m2
13:00 -6.1 °F -14.8 °F 30.66 in East 11 mph 27 mph 65% 0 in 338.00 W/m2
13:05 -5.8 °F -14.2 °F 30.65 in ESE 17 mph 27 mph 66% 0 in 366.00 W/m2
13:10 -5.5 °F -13.6 °F 30.65 in East 16 mph 25 mph 67% 0 in 383.00 W/m2
13:15 -5.3 °F -13.5 °F 30.65 in ESE 11 mph 25 mph 67% 0 in 366.00 W/m2
13:20 -4.7 °F -12.9 °F 30.64 in SE 17 mph 25 mph 67% 0 in 381.00 W/m2
13:25 -4.3 °F -12.8 °F 30.64 in East 17 mph 26 mph 66% 0 in 387.00 W/m2
13:30 -4.2 °F -12.7 °F 30.64 in ESE 19 mph 26 mph 66% 0 in 388.00 W/m2
13:35 -4.2 °F -12.7 °F 30.64 in SE 16 mph 26 mph 66% 0 in 381.00 W/m2
13:40 -4.7 °F -13.2 °F 30.63 in SE 21 mph 26 mph 66% 0 in 373.00 W/m2
13:45 -4.8 °F -13.3 °F 30.63 in ESE 19 mph 23 mph 66% 0 in 381.00 W/m2
13:50 -4.9 °F -13.1 °F 30.62 in ESE 17 mph 23 mph 67% 0 in 364.00 W/m2
13:55 -5.1 °F -13.3 °F 30.62 in SE 20 mph 27 mph 67% 0 in 346.00 W/m2
14:00 -5 °F -12.9 °F 30.62 in ESE 27 mph 27 mph 68% 0 in 343.00 W/m2
14:05 -4.5 °F -12.4 °F 30.62 in East 20 mph 27 mph 68% 0 in 355.00 W/m2
14:10 -4.1 °F -12.3 °F 30.62 in ESE 12 mph 23 mph 67% 0 in 353.00 W/m2
14:15 -3.8 °F -12 °F 30.62 in ESE 16 mph 24 mph 67% 0 in 350.00 W/m2
14:20 -3.7 °F -11.9 °F 30.61 in ESE 23 mph 25 mph 67% 0 in 357.00 W/m2
14:25 -3.7 °F -11.9 °F 30.61 in SE 18 mph 25 mph 67% 0 in 348.00 W/m2
14:30 -3.5 °F -11.4 °F 30.60 in ESE 21 mph 25 mph 68% 0 in 330.00 W/m2
14:35 -3.5 °F -11.7 °F 30.59 in ESE 12 mph 25 mph 67% 0 in 332.00 W/m2
14:40 -3.4 °F -11.3 °F 30.59 in East 16 mph 25 mph 68% 0 in 329.00 W/m2
14:45 -3.3 °F -11.2 °F 30.58 in East 16 mph 25 mph 68% 0 in 294.00 W/m2
14:50 -3.1 °F -11 °F 30.58 in ESE 17 mph 25 mph 68% 0 in 258.00 W/m2
14:55 -3.2 °F -11.1 °F 30.58 in ESE 13 mph 25 mph 68% 0 in 267.00 W/m2
15:00 -3.1 °F -11 °F 30.58 in ESE 16 mph 26 mph 68% 0 in 239.00 W/m2
15:05 -2.8 °F -10.5 °F 30.57 in ESE 11 mph 26 mph 69% 0 in 258.00 W/m2
15:10 -2.4 °F -10.1 °F 30.57 in SE 18 mph 26 mph 69% 0 in 253.00 W/m2
15:15 -2.1 °F -9.8 °F 30.57 in ESE 18 mph 26 mph 69% 0 in 257.00 W/m2
15:20 -1.9 °F -9.6 °F 30.56 in ESE 19 mph 22 mph 69% 0 in 204.00 W/m2
15:25 -1.8 °F -9.5 °F 30.56 in East 13 mph 25 mph 69% 0 in 178.00 W/m2
15:30 -2.1 °F -10.1 °F 30.56 in ESE 15 mph 25 mph 68% 0 in 146.00 W/m2
15:35 -2.6 °F -10.3 °F 30.56 in ESE 14 mph 24 mph 69% 0 in 144.00 W/m2
15:40 -2.8 °F -10.5 °F 30.56 in East 13 mph 25 mph 69% 0 in 116.00 W/m2
15:45 -2.9 °F -10.6 °F 30.56 in ESE 20 mph 25 mph 69% 0 in 116.00 W/m2
15:50 -2.8 °F -10.5 °F 30.55 in SE 17 mph 26 mph 69% 0 in 155.00 W/m2
15:55 -2.8 °F -10.5 °F 30.55 in ESE 14 mph 26 mph 69% 0 in 130.00 W/m2
16:00 -2.7 °F -10.4 °F 30.55 in ESE 19 mph 26 mph 69% 0 in 125.00 W/m2
16:05 -2.6 °F -10 °F 30.54 in ESE 12 mph 26 mph 70% 0 in 113.00 W/m2
16:10 -2.6 °F -10 °F 30.54 in East 17 mph 24 mph 70% 0 in 93.00 W/m2
16:15 -2.7 °F -10.1 °F 30.54 in East 13 mph 24 mph 70% 0 in 69.00 W/m2
16:20 -2.9 °F -10 °F 30.54 in ESE 15 mph 24 mph 71% 0 in 62.00 W/m2
16:25 -3 °F -10.1 °F 30.54 in ESE 16 mph 23 mph 71% 0 in 56.00 W/m2
16:30 -3.1 °F -10.2 °F 30.53 in ESE 17 mph 25 mph 71% 0 in 49.00 W/m2
16:35 -3.1 °F -10.2 °F 30.53 in East 18 mph 25 mph 71% 0 in 47.00 W/m2
16:40 -3 °F -9.8 °F 30.53 in East 14 mph 25 mph 72% 0 in 44.00 W/m2
16:45 -2.9 °F -9.7 °F 30.53 in ESE 15 mph 25 mph 72% 0 in 44.00 W/m2
16:50 -2.8 °F -9.6 °F 30.52 in East 19 mph 25 mph 72% 0 in 37.00 W/m2
16:55 -2.7 °F -9.5 °F 30.52 in ESE 13 mph 28 mph 72% 0 in 30.00 W/m2
17:00 -2.8 °F -9.6 °F 30.52 in ESE 18 mph 28 mph 72% 0 in 25.00 W/m2
17:05 -2.8 °F -9.6 °F 30.52 in ESE 14 mph 26 mph 72% 0 in 19.00 W/m2
17:10 -3 °F -9.8 °F 30.52 in East 13 mph 26 mph 72% 0 in 16.00 W/m2
17:15 -3.2 °F -10 °F 30.51 in ESE 19 mph 26 mph 72% 0 in 11.00 W/m2
17:20 -3.3 °F -9.8 °F 30.51 in ESE 16 mph 26 mph 73% 0 in 7.00 W/m2
17:25 -3.3 °F -9.8 °F 30.51 in ESE 16 mph 27 mph 73% 0 in 5.00 W/m2
17:30 -3.2 °F -9.4 °F 30.50 in East 26 mph 27 mph 74% 0 in 0.00 W/m2
17:35 -2.9 °F -9.1 °F 30.50 in East 23 mph 31 mph 74% 0 in 0.00 W/m2
17:40 -2.9 °F -9.1 °F 30.50 in ESE 14 mph 31 mph 74% 0 in 0.00 W/m2
17:45 -3 °F -9.2 °F 30.50 in ESE 18 mph 28 mph 74% 0 in 0.00 W/m2
17:50 -3.1 °F -9.3 °F 30.50 in SE 19 mph 28 mph 74% 0 in 0.00 W/m2
17:55 -3.1 °F -9.3 °F 30.50 in ESE 15 mph 27 mph 74% 0 in 0.00 W/m2
18:00 -3.1 °F -9.3 °F 30.50 in ESE 13 mph 27 mph 74% 0 in 0.00 W/m2
18:05 -3.2 °F -9.4 °F 30.49 in ESE 19 mph 27 mph 74% 0 in 0.00 W/m2
18:10 -3.3 °F -9.2 °F 30.49 in SE 18 mph 29 mph 75% 0 in 0.00 W/m2
18:15 -3.4 °F -9.3 °F 30.49 in ESE 25 mph 29 mph 75% 0 in 0.00 W/m2
18:20 -3.4 °F -9.3 °F 30.48 in ESE 14 mph 29 mph 75% 0 in 0.00 W/m2
18:25 -3.6 °F -9.5 °F 30.48 in ESE 22 mph 29 mph 75% 0 in 0.00 W/m2
18:30 -3.6 °F -9.5 °F 30.49 in ESE 23 mph 27 mph 75% 0 in 0.00 W/m2
18:35 -3.8 °F -9.7 °F 30.49 in ESE 15 mph 27 mph 75% 0 in 0.00 W/m2
18:40 -4 °F -9.9 °F 30.49 in East 14 mph 24 mph 75% 0 in 0.00 W/m2
18:45 -4.2 °F -10.1 °F 30.49 in ESE 14 mph 24 mph 75% 0 in 0.00 W/m2
18:50 -4.5 °F -10.1 °F 30.48 in ESE 19 mph 25 mph 76% 0 in 0.00 W/m2
18:55 -4.5 °F -10.1 °F 30.48 in East 19 mph 25 mph 76% 0 in 0.00 W/m2
19:00 -4.6 °F -10.2 °F 30.48 in ESE 16 mph 23 mph 76% 0 in 0.00 W/m2
19:05 -4.7 °F -10.3 °F 30.48 in SE 16 mph 24 mph 76% 0 in 0.00 W/m2
19:10 -4.7 °F -10.3 °F 30.48 in ESE 16 mph 24 mph 76% 0 in 0.00 W/m2
19:15 -4.7 °F -10.3 °F 30.47 in East 18 mph 23 mph 76% 0 in 0.00 W/m2
19:20 -4.7 °F -10.3 °F 30.46 in ESE 13 mph 24 mph 76% 0 in 0.00 W/m2
19:25 -4.7 °F -10.3 °F 30.46 in ESE 20 mph 24 mph 76% 0 in 0.00 W/m2
19:30 -4.7 °F -10.3 °F 30.45 in ESE 19 mph 26 mph 76% 0 in 0.00 W/m2
19:35 -4.5 °F -10.1 °F 30.45 in ESE 17 mph 26 mph 76% 0 in 0.00 W/m2
19:40 -4.4 °F -10 °F 30.45 in East 9 mph 26 mph 76% 0 in 0.00 W/m2
19:45 -4.5 °F -10.1 °F 30.45 in ESE 14 mph 26 mph 76% 0 in 0.00 W/m2
19:50 -4.5 °F -10.1 °F 30.44 in East 12 mph 25 mph 76% 0 in 0.00 W/m2
19:55 -4.6 °F -10.2 °F 30.43 in East 14 mph 25 mph 76% 0 in 0.00 W/m2
20:00 -4.6 °F -10.2 °F 30.43 in East 14 mph 21 mph 76% 0 in 0.00 W/m2
20:05 -4.5 °F -10.1 °F 30.43 in East 17 mph 21 mph 76% 0 in 0.00 W/m2
20:10 -4.5 °F -10.1 °F 30.43 in ESE 16 mph 22 mph 76% 0 in 0.00 W/m2
20:15 -4.6 °F -10.2 °F 30.43 in East 12 mph 22 mph 76% 0 in 0.00 W/m2
20:20 -4.7 °F -10.3 °F 30.42 in East 14 mph 22 mph 76% 0 in 0.00 W/m2
20:25 -4.6 °F -10 °F 30.42 in East 15 mph 22 mph 77% 0 in 0.00 W/m2
20:30 -4.3 °F -9.7 °F 30.42 in East 15 mph 20 mph 77% 0 in 0.00 W/m2
20:35 -4.2 °F -9.6 °F 30.42 in ESE 12 mph 20 mph 77% 0 in 0.00 W/m2
20:40 -4.1 °F -9.5 °F 30.42 in ESE 13 mph 20 mph 77% 0 in 0.00 W/m2
20:45 -3.9 °F -9.3 °F 30.41 in ESE 12 mph 20 mph 77% 0 in 0.00 W/m2
20:50 -3.5 °F -8.9 °F 30.41 in East 18 mph 22 mph 77% 0 in 0.00 W/m2
20:55 -3.2 °F -8.6 °F 30.41 in East 12 mph 22 mph 77% 0 in 0.00 W/m2
21:00 -3 °F -8.4 °F 30.40 in East 13 mph 21 mph 77% 0 in 0.00 W/m2
21:05 -3 °F -8.4 °F 30.39 in East 15 mph 23 mph 77% 0 in 0.00 W/m2
21:10 -3 °F -8.4 °F 30.39 in East 15 mph 23 mph 77% 0 in 0.00 W/m2
21:15 -2.9 °F -8.1 °F 30.38 in ESE 18 mph 20 mph 78% 0 in 0.00 W/m2
21:20 -2.5 °F -7.7 °F 30.38 in ESE 13 mph 26 mph 78% 0 in 0.00 W/m2
21:25 -2.5 °F -7.7 °F 30.37 in East 15 mph 26 mph 78% 0 in 0.00 W/m2
21:30 -2.5 °F -7.7 °F 30.37 in SE 20 mph 26 mph 78% 0 in 0.00 W/m2
21:35 -2.1 °F -7.3 °F 30.36 in East 16 mph 26 mph 78% 0 in 0.00 W/m2
21:40 -1.9 °F -7.1 °F 30.35 in SE 17 mph 24 mph 78% 0 in 0.00 W/m2
21:45 -1.6 °F -6.8 °F 30.35 in East 15 mph 24 mph 78% 0 in 0.00 W/m2
21:50 -1.4 °F -6.3 °F 30.35 in East 17 mph 24 mph 79% 0 in 0.00 W/m2
21:55 -1.3 °F -6.2 °F 30.34 in East 18 mph 24 mph 79% 0 in 0.00 W/m2
22:00 -0.9 °F -5.8 °F 30.34 in East 14 mph 25 mph 79% 0 in 0.00 W/m2
22:05 -0.3 °F -5.3 °F 30.34 in ESE 14 mph 25 mph 79% 0 in 0.00 W/m2
22:10 0 °F -5 °F 30.33 in East 19 mph 24 mph 79% 0 in 0.00 W/m2
22:15 0.4 °F -4.6 °F 30.32 in ESE 17 mph 24 mph 79% 0 in 0.00 W/m2
22:20 0.7 °F -4.3 °F 30.32 in SE 22 mph 24 mph 79% 0 in 0.00 W/m2
22:25 1.2 °F -3.8 °F 30.32 in SE 15 mph 25 mph 79% 0 in 0.00 W/m2
22:30 1.5 °F -3.5 °F 30.32 in East 18 mph 26 mph 79% 0 in 0.00 W/m2
22:35 1.3 °F -4 °F 30.32 in ESE 23 mph 29 mph 78% 0 in 0.00 W/m2
22:40 1.3 °F -3.7 °F 30.32 in ESE 14 mph 29 mph 79% 0 in 0.00 W/m2
22:45 1.2 °F -3.8 °F 30.31 in ESE 18 mph 29 mph 79% 0 in 0.00 W/m2
22:50 1.1 °F -3.9 °F 30.31 in East 12 mph 29 mph 79% 0 in 0.00 W/m2
22:55 1 °F -4 °F 30.30 in East 13 mph 21 mph 79% 0 in 0.00 W/m2
23:00 1.3 °F -3.4 °F 30.30 in East 10 mph 21 mph 80% 0 in 0.00 W/m2
23:05 2 °F -2.5 °F 30.30 in ENE 14 mph 18 mph 81% 0 in 0.00 W/m2
23:10 2.7 °F -2.1 °F 30.29 in East 11 mph 19 mph 80% 0 in 0.00 W/m2
23:15 2.8 °F -2 °F 30.29 in East 8 mph 19 mph 80% 0 in 0.00 W/m2
23:20 2.7 °F -2.1 °F 30.29 in East 13 mph 19 mph 80% 0 in 0.00 W/m2
23:25 3 °F -1.8 °F 30.28 in ESE 14 mph 19 mph 80% 0 in 0.00 W/m2
23:30 3.6 °F -1.2 °F 30.28 in ESE 11 mph 20 mph 80% 0 in 0.00 W/m2
23:35 4.2 °F -0.6 °F 30.27 in SE 14 mph 21 mph 80% 0 in 0.00 W/m2
23:40 4.6 °F -0.2 °F 30.27 in ESE 17 mph 21 mph 80% 0 in 0.00 W/m2
23:45 4.7 °F -0.1 °F 30.27 in ESE 14 mph 21 mph 80% 0 in 0.00 W/m2
23:50 4.8 °F 0 °F 30.26 in ESE 16 mph 21 mph 80% 0 in 0.00 W/m2
23:55 4.6 °F -0.5 °F 30.25 in East 15 mph 22 mph 79% 0 in 0.00 W/m2
Bismarck, North Dakota, USA
Compliments of Weather Underground - 4 mb